首页
METAR-TAF:

METAR-TAF

机场 :

明納, 尼日利亚

纬度: 9-37N, 经度: 6-32E, 海拔: 260米

当前天气观测

该预报发布于4小时和6分钟前的22:00 UTC
风速3节,风向南转西南
温度 24°C
湿度 94%
气压 1012 hPa
能见度10公里或以上
少量云层高于800英尺
小雨,

METAR: DNMN 242200Z 21003KT 9999 -RA FEW008 24/23 Q1012

时间: 03:06 (02:06 UTC)


TAF: 丢失

超过4000个机场的气象观测和天气预报(METAR&TAF报告)。

可查询的气象台以黄色和红色小点在地图上表示。

将鼠标移到小点上方,可查看气象台名称。

然后点击查看天气观测和预报。

如需切换地图:点击带黑十字的绿色按钮放大地图;点击带横线的绿色按钮缩小地图;或者点击绿色箭头查看邻近地区的地图。


METAR-TAF: